sensor_id;sensor_type;location;lat;lon;timestamp;P1;durP1;ratioP1;P2;durP2;ratioP2
61144;SDS011;47026;51.208;3.288;2022-07-25T00:00:56;3.92;;;2.90;;
61144;SDS011;47026;51.208;3.288;2022-07-25T00:03:22;4.18;;;3.22;;
61144;SDS011;47026;51.208;3.288;2022-07-25T00:05:48;5.75;;;3.50;;
61144;SDS011;47026;51.208;3.288;2022-07-25T00:08:14;4.65;;;3.20;;
61144;SDS011;47026;51.208;3.288;2022-07-25T00:10:40;3.72;;;2.97;;
61144;SDS011;47026;51.208;3.288;2022-07-25T00:13:06;4.15;;;3.12;;
61144;SDS011;47026;51.208;3.288;2022-07-25T00:15:32;3.62;;;2.90;;
61144;SDS011;47026;51.208;3.288;2022-07-25T00:17:58;4.47;;;3.05;;
61144;SDS011;47026;51.208;3.288;2022-07-25T00:20:24;4.50;;;3.03;;
61144;SDS011;47026;51.208;3.288;2022-07-25T00:22:50;4.30;;;2.83;;
61144;SDS011;47026;51.208;3.288;2022-07-25T00:25:15;7.37;;;3.45;;
61144;SDS011;47026;51.208;3.288;2022-07-25T00:27:41;4.18;;;2.78;;
61144;SDS011;47026;51.208;3.288;2022-07-25T00:30:07;6.95;;;3.58;;
61144;SDS011;47026;51.208;3.288;2022-07-25T00:32:34;5.25;;;2.90;;
61144;SDS011;47026;51.208;3.288;2022-07-25T00:34:59;6.18;;;4.07;;
61144;SDS011;47026;51.208;3.288;2022-07-25T00:37:25;3.40;;;2.80;;
61144;SDS011;47026;51.208;3.288;2022-07-25T00:39:51;5.53;;;3.40;;
61144;SDS011;47026;51.208;3.288;2022-07-25T00:42:17;4.80;;;3.22;;
61144;SDS011;47026;51.208;3.288;2022-07-25T00:44:43;6.70;;;3.42;;
61144;SDS011;47026;51.208;3.288;2022-07-25T00:47:09;4.25;;;3.47;;
61144;SDS011;47026;51.208;3.288;2022-07-25T00:49:35;6.32;;;4.40;;
61144;SDS011;47026;51.208;3.288;2022-07-25T00:52:01;4.95;;;3.30;;
61144;SDS011;47026;51.208;3.288;2022-07-25T00:54:27;5.72;;;3.50;;
61144;SDS011;47026;51.208;3.288;2022-07-25T00:56:53;4.68;;;3.45;;
61144;SDS011;47026;51.208;3.288;2022-07-25T00:59:19;7.50;;;3.40;;
61144;SDS011;47026;51.208;3.288;2022-07-25T01:01:45;4.80;;;3.85;;
61144;SDS011;47026;51.208;3.288;2022-07-25T01:04:12;6.65;;;4.32;;
61144;SDS011;47026;51.208;3.288;2022-07-25T01:06:39;4.28;;;3.53;;
61144;SDS011;47026;51.208;3.288;2022-07-25T01:09:05;4.68;;;3.58;;
61144;SDS011;47026;51.208;3.288;2022-07-25T01:11:31;4.45;;;3.58;;
61144;SDS011;47026;51.208;3.288;2022-07-25T01:13:57;6.47;;;3.42;;
61144;SDS011;47026;51.208;3.288;2022-07-25T01:16:23;6.40;;;3.90;;
61144;SDS011;47026;51.208;3.288;2022-07-25T01:18:49;7.15;;;3.80;;
61144;SDS011;47026;51.208;3.288;2022-07-25T01:21:15;4.30;;;3.67;;
61144;SDS011;47026;51.208;3.288;2022-07-25T01:23:41;6.90;;;3.40;;
61144;SDS011;47026;51.208;3.288;2022-07-25T01:26:07;6.37;;;3.58;;
61144;SDS011;47026;51.208;3.288;2022-07-25T01:28:33;5.80;;;3.70;;
61144;SDS011;47026;51.208;3.288;2022-07-25T01:30:59;6.40;;;4.20;;
61144;SDS011;47026;51.208;3.288;2022-07-25T01:33:24;9.07;;;4.32;;
61144;SDS011;47026;51.208;3.288;2022-07-25T01:35:50;6.10;;;4.20;;
61144;SDS011;47026;51.208;3.288;2022-07-25T01:38:16;10.07;;;4.22;;
61144;SDS011;47026;51.208;3.288;2022-07-25T01:40:43;6.03;;;4.00;;
61144;SDS011;47026;51.208;3.288;2022-07-25T01:43:09;6.70;;;4.03;;
61144;SDS011;47026;51.208;3.288;2022-07-25T01:45:35;6.35;;;4.35;;
61144;SDS011;47026;51.208;3.288;2022-07-25T01:48:01;5.40;;;4.37;;
61144;SDS011;47026;51.208;3.288;2022-07-25T01:50:27;5.18;;;4.00;;
61144;SDS011;47026;51.208;3.288;2022-07-25T01:52:53;6.07;;;4.10;;
61144;SDS011;47026;51.208;3.288;2022-07-25T01:55:19;6.87;;;4.45;;
61144;SDS011;47026;51.208;3.288;2022-07-25T01:57:45;6.50;;;3.97;;
61144;SDS011;47026;51.208;3.288;2022-07-25T02:00:11;6.22;;;4.35;;
61144;SDS011;47026;51.208;3.288;2022-07-25T02:02:40;5.57;;;4.03;;
61144;SDS011;47026;51.208;3.288;2022-07-25T02:05:07;5.35;;;3.47;;
61144;SDS011;47026;51.208;3.288;2022-07-25T02:07:35;4.80;;;3.83;;
61144;SDS011;47026;51.208;3.288;2022-07-25T02:10:01;5.07;;;3.70;;
61144;SDS011;47026;51.208;3.288;2022-07-25T02:12:28;5.45;;;3.60;;
61144;SDS011;47026;51.208;3.288;2022-07-25T02:14:54;5.05;;;3.50;;
61144;SDS011;47026;51.208;3.288;2022-07-25T02:17:20;5.10;;;3.37;;
61144;SDS011;47026;51.208;3.288;2022-07-25T02:19:46;5.28;;;3.35;;
61144;SDS011;47026;51.208;3.288;2022-07-25T02:22:12;4.53;;;3.42;;
61144;SDS011;47026;51.208;3.288;2022-07-25T02:24:38;4.22;;;2.85;;
61144;SDS011;47026;51.208;3.288;2022-07-25T02:27:04;3.87;;;3.20;;
61144;SDS011;47026;51.208;3.288;2022-07-25T02:29:30;3.92;;;2.65;;
61144;SDS011;47026;51.208;3.288;2022-07-25T02:31:56;4.43;;;2.90;;
61144;SDS011;47026;51.208;3.288;2022-07-25T02:34:22;3.67;;;2.65;;
61144;SDS011;47026;51.208;3.288;2022-07-25T02:36:48;5.65;;;3.10;;
61144;SDS011;47026;51.208;3.288;2022-07-25T02:39:14;4.03;;;2.70;;
61144;SDS011;47026;51.208;3.288;2022-07-25T02:41:40;4.57;;;2.60;;
61144;SDS011;47026;51.208;3.288;2022-07-25T02:44:06;2.90;;;2.30;;
61144;SDS011;47026;51.208;3.288;2022-07-25T02:46:32;4.07;;;2.12;;
61144;SDS011;47026;51.208;3.288;2022-07-25T02:48:58;4.47;;;2.67;;
61144;SDS011;47026;51.208;3.288;2022-07-25T02:51:24;3.75;;;2.15;;
61144;SDS011;47026;51.208;3.288;2022-07-25T02:53:50;2.95;;;2.20;;
61144;SDS011;47026;51.208;3.288;2022-07-25T02:56:16;6.65;;;2.20;;
61144;SDS011;47026;51.208;3.288;2022-07-25T02:58:43;4.32;;;2.17;;
61144;SDS011;47026;51.208;3.288;2022-07-25T03:01:09;3.53;;;2.35;;
61144;SDS011;47026;51.208;3.288;2022-07-25T03:03:35;5.65;;;2.25;;
61144;SDS011;47026;51.208;3.288;2022-07-25T03:06:01;4.65;;;2.17;;
61144;SDS011;47026;51.208;3.288;2022-07-25T03:08:28;5.80;;;2.10;;
61144;SDS011;47026;51.208;3.288;2022-07-25T03:10:53;5.00;;;2.75;;
61144;SDS011;47026;51.208;3.288;2022-07-25T03:13:19;4.95;;;2.30;;
61144;SDS011;47026;51.208;3.288;2022-07-25T03:15:45;4.60;;;2.40;;
61144;SDS011;47026;51.208;3.288;2022-07-25T03:18:11;5.22;;;2.40;;
61144;SDS011;47026;51.208;3.288;2022-07-25T03:20:37;6.22;;;2.45;;
61144;SDS011;47026;51.208;3.288;2022-07-25T03:23:03;4.60;;;2.17;;
61144;SDS011;47026;51.208;3.288;2022-07-25T03:25:29;5.28;;;2.35;;
61144;SDS011;47026;51.208;3.288;2022-07-25T03:27:55;4.22;;;2.15;;
61144;SDS011;47026;51.208;3.288;2022-07-25T03:30:21;5.25;;;2.12;;
61144;SDS011;47026;51.208;3.288;2022-07-25T03:32:47;7.55;;;2.12;;
61144;SDS011;47026;51.208;3.288;2022-07-25T03:35:13;5.78;;;2.20;;
61144;SDS011;47026;51.208;3.288;2022-07-25T03:37:40;5.20;;;3.00;;
61144;SDS011;47026;51.208;3.288;2022-07-25T03:40:06;4.60;;;2.37;;
61144;SDS011;47026;51.208;3.288;2022-07-25T03:42:33;5.90;;;2.22;;
61144;SDS011;47026;51.208;3.288;2022-07-25T03:44:59;4.35;;;2.60;;
61144;SDS011;47026;51.208;3.288;2022-07-25T03:47:25;5.55;;;2.62;;
61144;SDS011;47026;51.208;3.288;2022-07-25T03:49:51;5.78;;;2.40;;
61144;SDS011;47026;51.208;3.288;2022-07-25T03:52:16;5.10;;;2.50;;
61144;SDS011;47026;51.208;3.288;2022-07-25T03:54:42;4.15;;;2.40;;
61144;SDS011;47026;51.208;3.288;2022-07-25T03:57:08;7.82;;;2.60;;
61144;SDS011;47026;51.208;3.288;2022-07-25T03:59:36;4.70;;;2.30;;
61144;SDS011;47026;51.208;3.288;2022-07-25T04:02:03;5.80;;;2.28;;
61144;SDS011;47026;51.208;3.288;2022-07-25T04:04:29;5.72;;;2.67;;
61144;SDS011;47026;51.208;3.288;2022-07-25T04:06:55;4.70;;;2.50;;
61144;SDS011;47026;51.208;3.288;2022-07-25T04:09:21;2.78;;;2.03;;
61144;SDS011;47026;51.208;3.288;2022-07-25T04:11:46;4.32;;;2.40;;
61144;SDS011;47026;51.208;3.288;2022-07-25T04:14:12;3.95;;;2.30;;
61144;SDS011;47026;51.208;3.288;2022-07-25T04:16:38;3.58;;;2.45;;
61144;SDS011;47026;51.208;3.288;2022-07-25T04:19:05;3.20;;;2.30;;
61144;SDS011;47026;51.208;3.288;2022-07-25T04:21:31;4.43;;;2.20;;
61144;SDS011;47026;51.208;3.288;2022-07-25T04:23:57;3.97;;;2.40;;
61144;SDS011;47026;51.208;3.288;2022-07-25T04:26:23;6.40;;;2.78;;
61144;SDS011;47026;51.208;3.288;2022-07-25T04:28:49;6.60;;;2.40;;
61144;SDS011;47026;51.208;3.288;2022-07-25T04:31:15;6.45;;;2.72;;
61144;SDS011;47026;51.208;3.288;2022-07-25T04:33:41;5.18;;;2.58;;
61144;SDS011;47026;51.208;3.288;2022-07-25T04:36:07;8.07;;;2.95;;
61144;SDS011;47026;51.208;3.288;2022-07-25T04:38:34;4.97;;;2.80;;
61144;SDS011;47026;51.208;3.288;2022-07-25T04:41:00;6.82;;;2.83;;
61144;SDS011;47026;51.208;3.288;2022-07-25T04:43:26;8.98;;;2.97;;
61144;SDS011;47026;51.208;3.288;2022-07-25T04:45:51;9.50;;;2.80;;
61144;SDS011;47026;51.208;3.288;2022-07-25T04:48:17;6.15;;;2.87;;
61144;SDS011;47026;51.208;3.288;2022-07-25T04:50:43;9.50;;;3.17;;
61144;SDS011;47026;51.208;3.288;2022-07-25T04:53:09;6.62;;;2.92;;
61144;SDS011;47026;51.208;3.288;2022-07-25T04:55:35;6.75;;;2.83;;
61144;SDS011;47026;51.208;3.288;2022-07-25T04:58:03;6.45;;;2.80;;
61144;SDS011;47026;51.208;3.288;2022-07-25T05:00:29;7.75;;;2.97;;
61144;SDS011;47026;51.208;3.288;2022-07-25T05:02:55;5.28;;;3.05;;
61144;SDS011;47026;51.208;3.288;2022-07-25T05:05:22;10.93;;;2.90;;
61144;SDS011;47026;51.208;3.288;2022-07-25T05:07:48;6.75;;;3.30;;
61144;SDS011;47026;51.208;3.288;2022-07-25T05:10:15;8.55;;;3.25;;
61144;SDS011;47026;51.208;3.288;2022-07-25T05:12:41;7.47;;;3.58;;
61144;SDS011;47026;51.208;3.288;2022-07-25T05:15:07;10.77;;;3.80;;
61144;SDS011;47026;51.208;3.288;2022-07-25T05:17:34;9.82;;;3.87;;
61144;SDS011;47026;51.208;3.288;2022-07-25T05:19:59;7.68;;;3.58;;
61144;SDS011;47026;51.208;3.288;2022-07-25T05:22:25;8.68;;;3.10;;
61144;SDS011;47026;51.208;3.288;2022-07-25T05:24:51;8.77;;;3.45;;
61144;SDS011;47026;51.208;3.288;2022-07-25T05:27:17;5.95;;;3.50;;
61144;SDS011;47026;51.208;3.288;2022-07-25T05:29:43;5.97;;;3.08;;
61144;SDS011;47026;51.208;3.288;2022-07-25T05:32:09;10.02;;;3.42;;
61144;SDS011;47026;51.208;3.288;2022-07-25T05:34:35;7.28;;;3.12;;
61144;SDS011;47026;51.208;3.288;2022-07-25T05:37:00;7.62;;;3.30;;
61144;SDS011;47026;51.208;3.288;2022-07-25T05:39:26;7.18;;;3.70;;
61144;SDS011;47026;51.208;3.288;2022-07-25T05:41:53;6.80;;;3.40;;
61144;SDS011;47026;51.208;3.288;2022-07-25T05:44:19;7.82;;;3.40;;
61144;SDS011;47026;51.208;3.288;2022-07-25T05:46:45;8.98;;;3.45;;
61144;SDS011;47026;51.208;3.288;2022-07-25T05:49:11;8.25;;;3.80;;
61144;SDS011;47026;51.208;3.288;2022-07-25T05:51:37;7.10;;;4.00;;
61144;SDS011;47026;51.208;3.288;2022-07-25T05:54:02;7.97;;;4.12;;
61144;SDS011;47026;51.208;3.288;2022-07-25T05:56:28;8.45;;;3.75;;
61144;SDS011;47026;51.208;3.288;2022-07-25T05:58:54;8.07;;;4.28;;
61144;SDS011;47026;51.208;3.288;2022-07-25T06:01:20;9.10;;;4.60;;
61144;SDS011;47026;51.208;3.288;2022-07-25T06:03:46;7.65;;;4.80;;
61144;SDS011;47026;51.208;3.288;2022-07-25T06:06:12;11.95;;;5.20;;
61144;SDS011;47026;51.208;3.288;2022-07-25T06:08:38;10.07;;;4.82;;
61144;SDS011;47026;51.208;3.288;2022-07-25T06:11:05;12.10;;;5.75;;
61144;SDS011;47026;51.208;3.288;2022-07-25T06:13:31;12.70;;;5.28;;
61144;SDS011;47026;51.208;3.288;2022-07-25T06:15:58;8.65;;;4.72;;
61144;SDS011;47026;51.208;3.288;2022-07-25T06:18:24;7.60;;;4.30;;
61144;SDS011;47026;51.208;3.288;2022-07-25T06:20:50;6.85;;;3.80;;
61144;SDS011;47026;51.208;3.288;2022-07-25T06:23:16;8.07;;;4.12;;
61144;SDS011;47026;51.208;3.288;2022-07-25T06:25:43;8.73;;;3.80;;
61144;SDS011;47026;51.208;3.288;2022-07-25T06:28:09;4.90;;;3.45;;
61144;SDS011;47026;51.208;3.288;2022-07-25T06:30:35;8.80;;;3.25;;
61144;SDS011;47026;51.208;3.288;2022-07-25T06:33:01;6.65;;;3.42;;
61144;SDS011;47026;51.208;3.288;2022-07-25T06:35:26;7.87;;;3.53;;
61144;SDS011;47026;51.208;3.288;2022-07-25T06:37:52;5.93;;;3.20;;
61144;SDS011;47026;51.208;3.288;2022-07-25T06:40:18;5.78;;;3.17;;
61144;SDS011;47026;51.208;3.288;2022-07-25T06:42:44;6.30;;;3.20;;
61144;SDS011;47026;51.208;3.288;2022-07-25T06:45:12;6.50;;;3.20;;
61144;SDS011;47026;51.208;3.288;2022-07-25T06:47:39;6.22;;;3.12;;
61144;SDS011;47026;51.208;3.288;2022-07-25T06:50:07;6.62;;;3.10;;
61144;SDS011;47026;51.208;3.288;2022-07-25T06:52:34;5.47;;;2.60;;
61144;SDS011;47026;51.208;3.288;2022-07-25T06:55:00;5.15;;;2.30;;
61144;SDS011;47026;51.208;3.288;2022-07-25T06:57:28;5.47;;;2.80;;
61144;SDS011;47026;51.208;3.288;2022-07-25T06:59:53;7.90;;;3.22;;
61144;SDS011;47026;51.208;3.288;2022-07-25T07:02:19;8.57;;;2.80;;
61144;SDS011;47026;51.208;3.288;2022-07-25T07:04:45;9.48;;;2.97;;
61144;SDS011;47026;51.208;3.288;2022-07-25T07:07:10;6.47;;;2.85;;
61144;SDS011;47026;51.208;3.288;2022-07-25T07:09:36;6.10;;;2.53;;
61144;SDS011;47026;51.208;3.288;2022-07-25T07:12:02;8.07;;;2.37;;
61144;SDS011;47026;51.208;3.288;2022-07-25T07:14:28;13.18;;;2.53;;
61144;SDS011;47026;51.208;3.288;2022-07-25T07:16:54;7.22;;;2.60;;
61144;SDS011;47026;51.208;3.288;2022-07-25T07:19:20;7.40;;;2.42;;
61144;SDS011;47026;51.208;3.288;2022-07-25T07:21:46;6.72;;;2.72;;
61144;SDS011;47026;51.208;3.288;2022-07-25T07:24:15;5.53;;;2.35;;
61144;SDS011;47026;51.208;3.288;2022-07-25T07:26:41;5.43;;;2.75;;
61144;SDS011;47026;51.208;3.288;2022-07-25T07:29:07;7.12;;;2.37;;
61144;SDS011;47026;51.208;3.288;2022-07-25T07:31:32;6.15;;;2.10;;
61144;SDS011;47026;51.208;3.288;2022-07-25T07:33:58;6.55;;;2.40;;
61144;SDS011;47026;51.208;3.288;2022-07-25T07:36:24;6.55;;;2.58;;
61144;SDS011;47026;51.208;3.288;2022-07-25T07:38:50;6.07;;;2.87;;
61144;SDS011;47026;51.208;3.288;2022-07-25T07:41:17;6.18;;;2.50;;
61144;SDS011;47026;51.208;3.288;2022-07-25T07:43:43;6.18;;;2.60;;
61144;SDS011;47026;51.208;3.288;2022-07-25T07:46:09;6.62;;;2.85;;
61144;SDS011;47026;51.208;3.288;2022-07-25T07:48:36;7.55;;;2.78;;
61144;SDS011;47026;51.208;3.288;2022-07-25T07:51:02;7.15;;;3.10;;
61144;SDS011;47026;51.208;3.288;2022-07-25T07:53:29;7.37;;;3.22;;
61144;SDS011;47026;51.208;3.288;2022-07-25T07:56:14;6.87;;;3.22;;
61144;SDS011;47026;51.208;3.288;2022-07-25T07:58:41;6.62;;;3.37;;
61144;SDS011;47026;51.208;3.288;2022-07-25T08:01:07;6.62;;;3.10;;
61144;SDS011;47026;51.208;3.288;2022-07-25T08:03:33;8.95;;;3.72;;
61144;SDS011;47026;51.208;3.288;2022-07-25T08:06:00;10.48;;;3.65;;
61144;SDS011;47026;51.208;3.288;2022-07-25T08:08:26;9.32;;;4.30;;
61144;SDS011;47026;51.208;3.288;2022-07-25T08:10:52;8.60;;;4.30;;
61144;SDS011;47026;51.208;3.288;2022-07-25T08:13:21;8.00;;;3.87;;
61144;SDS011;47026;51.208;3.288;2022-07-25T08:15:51;7.82;;;4.12;;
61144;SDS011;47026;51.208;3.288;2022-07-25T08:18:22;7.50;;;3.83;;
61144;SDS011;47026;51.208;3.288;2022-07-25T08:20:49;8.55;;;3.58;;
61144;SDS011;47026;51.208;3.288;2022-07-25T08:23:16;7.53;;;3.55;;
61144;SDS011;47026;51.208;3.288;2022-07-25T08:25:43;8.20;;;3.40;;
61144;SDS011;47026;51.208;3.288;2022-07-25T08:28:10;8.73;;;3.12;;
61144;SDS011;47026;51.208;3.288;2022-07-25T08:30:37;6.10;;;3.17;;
61144;SDS011;47026;51.208;3.288;2022-07-25T08:33:05;6.10;;;2.67;;
61144;SDS011;47026;51.208;3.288;2022-07-25T08:35:34;5.37;;;3.20;;
61144;SDS011;47026;51.208;3.288;2022-07-25T08:38:01;6.97;;;2.55;;
61144;SDS011;47026;51.208;3.288;2022-07-25T08:40:29;11.48;;;3.35;;
61144;SDS011;47026;51.208;3.288;2022-07-25T08:42:55;9.95;;;2.62;;
61144;SDS011;47026;51.208;3.288;2022-07-25T08:45:23;11.12;;;2.83;;
61144;SDS011;47026;51.208;3.288;2022-07-25T08:47:51;10.18;;;2.90;;
61144;SDS011;47026;51.208;3.288;2022-07-25T08:50:19;9.48;;;2.70;;
61144;SDS011;47026;51.208;3.288;2022-07-25T08:52:47;7.12;;;2.67;;
61144;SDS011;47026;51.208;3.288;2022-07-25T08:55:15;6.40;;;3.00;;
61144;SDS011;47026;51.208;3.288;2022-07-25T08:57:47;10.55;;;3.03;;
61144;SDS011;47026;51.208;3.288;2022-07-25T09:00:17;10.15;;;3.10;;
61144;SDS011;47026;51.208;3.288;2022-07-25T09:02:52;8.90;;;2.92;;
61144;SDS011;47026;51.208;3.288;2022-07-25T09:05:20;7.97;;;2.15;;
61144;SDS011;47026;51.208;3.288;2022-07-25T09:07:48;7.03;;;2.80;;
61144;SDS011;47026;51.208;3.288;2022-07-25T09:12:57;5.80;;;2.17;;
61144;SDS011;47026;51.208;3.288;2022-07-25T09:15:30;6.60;;;2.15;;
61144;SDS011;47026;51.208;3.288;2022-07-25T09:18:01;7.78;;;2.65;;
61144;SDS011;47026;51.208;3.288;2022-07-25T09:20:39;4.90;;;2.10;;
61144;SDS011;47026;51.208;3.288;2022-07-25T09:23:11;6.90;;;2.53;;
61144;SDS011;47026;51.208;3.288;2022-07-25T09:25:40;5.90;;;2.28;;
61144;SDS011;47026;51.208;3.288;2022-07-25T09:28:10;4.65;;;1.87;;
61144;SDS011;47026;51.208;3.288;2022-07-25T09:30:51;5.28;;;1.80;;
61144;SDS011;47026;51.208;3.288;2022-07-25T09:33:22;8.02;;;2.20;;
61144;SDS011;47026;51.208;3.288;2022-07-25T09:35:49;7.53;;;2.12;;
61144;SDS011;47026;51.208;3.288;2022-07-25T09:38:16;8.05;;;2.10;;
61144;SDS011;47026;51.208;3.288;2022-07-25T09:43:41;4.90;;;1.83;;
61144;SDS011;47026;51.208;3.288;2022-07-25T09:46:08;5.75;;;2.17;;
61144;SDS011;47026;51.208;3.288;2022-07-25T09:48:36;5.30;;;1.75;;
61144;SDS011;47026;51.208;3.288;2022-07-25T09:51:03;6.32;;;2.12;;
61144;SDS011;47026;51.208;3.288;2022-07-25T09:53:31;5.05;;;2.10;;
61144;SDS011;47026;51.208;3.288;2022-07-25T09:55:57;6.20;;;2.10;;
61144;SDS011;47026;51.208;3.288;2022-07-25T09:58:24;6.65;;;1.90;;
61144;SDS011;47026;51.208;3.288;2022-07-25T10:00:51;4.32;;;1.73;;
61144;SDS011;47026;51.208;3.288;2022-07-25T10:06:33;6.05;;;1.65;;
61144;SDS011;47026;51.208;3.288;2022-07-25T10:09:08;4.72;;;1.80;;
61144;SDS011;47026;51.208;3.288;2022-07-25T10:11:36;5.80;;;1.90;;
61144;SDS011;47026;51.208;3.288;2022-07-25T10:17:20;3.97;;;1.90;;
61144;SDS011;47026;51.208;3.288;2022-07-25T10:19:54;6.10;;;2.17;;
61144;SDS011;47026;51.208;3.288;2022-07-25T10:22:20;8.65;;;2.45;;
61144;SDS011;47026;51.208;3.288;2022-07-25T10:24:47;6.45;;;2.25;;
61144;SDS011;47026;51.208;3.288;2022-07-25T10:27:19;6.20;;;2.20;;
61144;SDS011;47026;51.208;3.288;2022-07-25T10:29:48;6.53;;;1.80;;
61144;SDS011;47026;51.208;3.288;2022-07-25T10:32:17;6.65;;;2.12;;
61144;SDS011;47026;51.208;3.288;2022-07-25T10:34:59;5.25;;;2.05;;
61144;SDS011;47026;51.208;3.288;2022-07-25T10:40:38;7.15;;;1.90;;
61144;SDS011;47026;51.208;3.288;2022-07-25T10:43:45;7.45;;;2.12;;
61144;SDS011;47026;51.208;3.288;2022-07-25T10:46:20;5.20;;;2.00;;
61144;SDS011;47026;51.208;3.288;2022-07-25T10:48:57;5.62;;;1.70;;
61144;SDS011;47026;51.208;3.288;2022-07-25T10:51:25;4.72;;;1.60;;
61144;SDS011;47026;51.208;3.288;2022-07-25T10:53:53;5.43;;;1.70;;
61144;SDS011;47026;51.208;3.288;2022-07-25T10:56:24;8.57;;;1.70;;
61144;SDS011;47026;51.208;3.288;2022-07-25T11:01:26;4.93;;;1.40;;
61144;SDS011;47026;51.208;3.288;2022-07-25T11:04:15;6.05;;;1.73;;
61144;SDS011;47026;51.208;3.288;2022-07-25T11:06:41;5.03;;;1.37;;
61144;SDS011;47026;51.208;3.288;2022-07-25T11:11:40;3.83;;;1.30;;
61144;SDS011;47026;51.208;3.288;2022-07-25T11:16:43;5.22;;;1.35;;
61144;SDS011;47026;51.208;3.288;2022-07-25T11:19:14;3.72;;;1.17;;
61144;SDS011;47026;51.208;3.288;2022-07-25T11:21:53;8.77;;;1.20;;
61144;SDS011;47026;51.208;3.288;2022-07-25T11:24:34;8.07;;;1.40;;
61144;SDS011;47026;51.208;3.288;2022-07-25T11:27:04;5.82;;;1.83;;
61144;SDS011;47026;51.208;3.288;2022-07-25T11:29:31;5.22;;;1.37;;
61144;SDS011;47026;51.208;3.288;2022-07-25T11:32:06;5.95;;;1.50;;
61144;SDS011;47026;51.208;3.288;2022-07-25T11:34:33;5.12;;;1.17;;
61144;SDS011;47026;51.208;3.288;2022-07-25T11:37:07;7.62;;;1.60;;
61144;SDS011;47026;51.208;3.288;2022-07-25T11:39:34;6.82;;;1.80;;
61144;SDS011;47026;51.208;3.288;2022-07-25T11:42:05;4.50;;;1.65;;
61144;SDS011;47026;51.208;3.288;2022-07-25T11:44:34;4.95;;;1.12;;
61144;SDS011;47026;51.208;3.288;2022-07-25T11:47:05;4.18;;;1.00;;
61144;SDS011;47026;51.208;3.288;2022-07-25T11:49:42;4.75;;;1.23;;
61144;SDS011;47026;51.208;3.288;2022-07-25T11:52:29;4.03;;;1.08;;
61144;SDS011;47026;51.208;3.288;2022-07-25T11:54:58;6.70;;;1.48;;
61144;SDS011;47026;51.208;3.288;2022-07-25T11:57:33;6.97;;;1.12;;
61144;SDS011;47026;51.208;3.288;2022-07-25T12:00:03;4.40;;;1.08;;
61144;SDS011;47026;51.208;3.288;2022-07-25T12:02:33;2.62;;;1.08;;
61144;SDS011;47026;51.208;3.288;2022-07-25T12:05:07;2.45;;;0.65;;
61144;SDS011;47026;51.208;3.288;2022-07-25T12:10:15;1.42;;;0.73;;
61144;SDS011;47026;51.208;3.288;2022-07-25T12:12:50;4.20;;;0.77;;
61144;SDS011;47026;51.208;3.288;2022-07-25T12:15:19;1.77;;;0.62;;
61144;SDS011;47026;51.208;3.288;2022-07-25T12:18:06;3.10;;;0.75;;
61144;SDS011;47026;51.208;3.288;2022-07-25T12:20:37;3.60;;;0.90;;
61144;SDS011;47026;51.208;3.288;2022-07-25T12:23:17;3.95;;;0.65;;
61144;SDS011;47026;51.208;3.288;2022-07-25T12:25:45;5.00;;;0.80;;
61144;SDS011;47026;51.208;3.288;2022-07-25T12:28:11;3.55;;;1.00;;
61144;SDS011;47026;51.208;3.288;2022-07-25T12:30:44;4.05;;;0.90;;
61144;SDS011;47026;51.208;3.288;2022-07-25T12:38:35;4.00;;;0.70;;
61144;SDS011;47026;51.208;3.288;2022-07-25T12:41:02;3.83;;;0.70;;
61144;SDS011;47026;51.208;3.288;2022-07-25T12:43:27;3.08;;;0.75;;
61144;SDS011;47026;51.208;3.288;2022-07-25T12:45:53;3.10;;;0.80;;
61144;SDS011;47026;51.208;3.288;2022-07-25T12:48:19;7.47;;;1.10;;
61144;SDS011;47026;51.208;3.288;2022-07-25T12:50:51;3.92;;;0.90;;
61144;SDS011;47026;51.208;3.288;2022-07-25T12:53:17;3.72;;;0.73;;
61144;SDS011;47026;51.208;3.288;2022-07-25T12:55:43;2.30;;;0.80;;
61144;SDS011;47026;51.208;3.288;2022-07-25T12:58:09;3.00;;;0.73;;
61144;SDS011;47026;51.208;3.288;2022-07-25T13:00:50;4.78;;;0.75;;
61144;SDS011;47026;51.208;3.288;2022-07-25T13:03:16;2.45;;;0.65;;
61144;SDS011;47026;51.208;3.288;2022-07-25T13:05:42;4.12;;;0.80;;
61144;SDS011;47026;51.208;3.288;2022-07-25T13:08:08;4.32;;;0.73;;
61144;SDS011;47026;51.208;3.288;2022-07-25T13:10:34;5.82;;;0.65;;
61144;SDS011;47026;51.208;3.288;2022-07-25T13:13:00;3.05;;;0.70;;
61144;SDS011;47026;51.208;3.288;2022-07-25T13:15:26;3.12;;;0.80;;
61144;SDS011;47026;51.208;3.288;2022-07-25T13:17:54;4.12;;;0.70;;
61144;SDS011;47026;51.208;3.288;2022-07-25T13:20:20;3.17;;;0.70;;
61144;SDS011;47026;51.208;3.288;2022-07-25T13:22:46;2.78;;;1.27;;
61144;SDS011;47026;51.208;3.288;2022-07-25T13:25:15;6.03;;;0.80;;
61144;SDS011;47026;51.208;3.288;2022-07-25T13:27:41;2.40;;;0.70;;
61144;SDS011;47026;51.208;3.288;2022-07-25T13:30:07;2.53;;;0.68;;
61144;SDS011;47026;51.208;3.288;2022-07-25T13:32:33;4.80;;;0.80;;
61144;SDS011;47026;51.208;3.288;2022-07-25T13:34:59;1.17;;;0.47;;
61144;SDS011;47026;51.208;3.288;2022-07-25T13:37:25;3.25;;;0.90;;
61144;SDS011;47026;51.208;3.288;2022-07-25T13:39:51;7.30;;;0.77;;
61144;SDS011;47026;51.208;3.288;2022-07-25T13:42:17;2.85;;;0.73;;
61144;SDS011;47026;51.208;3.288;2022-07-25T13:44:43;1.85;;;0.60;;
61144;SDS011;47026;51.208;3.288;2022-07-25T13:47:09;3.37;;;0.55;;
61144;SDS011;47026;51.208;3.288;2022-07-25T13:49:35;3.42;;;0.77;;
61144;SDS011;47026;51.208;3.288;2022-07-25T13:52:01;4.87;;;0.77;;
61144;SDS011;47026;51.208;3.288;2022-07-25T13:54:27;3.15;;;0.55;;
61144;SDS011;47026;51.208;3.288;2022-07-25T13:56:53;2.00;;;0.50;;
61144;SDS011;47026;51.208;3.288;2022-07-25T13:59:19;2.22;;;0.70;;
61144;SDS011;47026;51.208;3.288;2022-07-25T14:01:45;4.00;;;0.60;;
61144;SDS011;47026;51.208;3.288;2022-07-25T14:04:11;2.67;;;0.77;;
61144;SDS011;47026;51.208;3.288;2022-07-25T14:06:37;4.68;;;0.73;;
61144;SDS011;47026;51.208;3.288;2022-07-25T14:09:03;6.60;;;0.82;;
61144;SDS011;47026;51.208;3.288;2022-07-25T14:11:29;3.05;;;0.60;;
61144;SDS011;47026;51.208;3.288;2022-07-25T14:13:55;6.25;;;0.93;;
61144;SDS011;47026;51.208;3.288;2022-07-25T14:16:21;3.78;;;1.10;;
61144;SDS011;47026;51.208;3.288;2022-07-25T14:18:47;4.10;;;1.00;;
61144;SDS011;47026;51.208;3.288;2022-07-25T14:21:14;2.95;;;0.80;;
61144;SDS011;47026;51.208;3.288;2022-07-25T14:23:40;3.80;;;0.93;;
61144;SDS011;47026;51.208;3.288;2022-07-25T14:26:06;2.83;;;0.77;;
61144;SDS011;47026;51.208;3.288;2022-07-25T14:28:32;2.80;;;0.57;;
61144;SDS011;47026;51.208;3.288;2022-07-25T14:30:58;8.40;;;0.75;;
61144;SDS011;47026;51.208;3.288;2022-07-25T14:33:24;3.80;;;0.65;;
61144;SDS011;47026;51.208;3.288;2022-07-25T14:35:50;2.12;;;0.50;;
61144;SDS011;47026;51.208;3.288;2022-07-25T14:38:16;1.85;;;0.80;;
61144;SDS011;47026;51.208;3.288;2022-07-25T14:40:42;4.68;;;0.90;;
61144;SDS011;47026;51.208;3.288;2022-07-25T14:43:08;1.95;;;0.50;;
61144;SDS011;47026;51.208;3.288;2022-07-25T14:45:34;2.78;;;1.08;;
61144;SDS011;47026;51.208;3.288;2022-07-25T14:48:01;4.03;;;0.70;;
61144;SDS011;47026;51.208;3.288;2022-07-25T14:50:29;3.42;;;1.08;;
61144;SDS011;47026;51.208;3.288;2022-07-25T14:52:55;3.95;;;0.90;;
61144;SDS011;47026;51.208;3.288;2022-07-25T14:55:21;4.00;;;0.88;;
61144;SDS011;47026;51.208;3.288;2022-07-25T14:57:48;4.35;;;0.82;;
61144;SDS011;47026;51.208;3.288;2022-07-25T15:00:14;3.12;;;0.80;;
61144;SDS011;47026;51.208;3.288;2022-07-25T15:02:40;5.20;;;1.12;;
61144;SDS011;47026;51.208;3.288;2022-07-25T15:05:07;3.40;;;0.80;;
61144;SDS011;47026;51.208;3.288;2022-07-25T15:07:35;3.58;;;0.77;;
61144;SDS011;47026;51.208;3.288;2022-07-25T15:10:01;3.03;;;0.80;;
61144;SDS011;47026;51.208;3.288;2022-07-25T15:12:27;2.72;;;0.60;;
61144;SDS011;47026;51.208;3.288;2022-07-25T15:15:11;7.40;;;1.27;;
61144;SDS011;47026;51.208;3.288;2022-07-25T15:17:37;5.43;;;0.90;;
61144;SDS011;47026;51.208;3.288;2022-07-25T15:20:03;2.65;;;0.80;;